sensor_id;sensor_type;location;lat;lon;timestamp;P1;durP1;ratioP1;P2;durP2;ratioP2
15645;SDS011;7922;43.622;1.476;2023-09-12T00:02:01;4.60;;;2.80;;
15645;SDS011;7922;43.622;1.476;2023-09-12T00:04:28;5.13;;;2.87;;
15645;SDS011;7922;43.622;1.476;2023-09-12T00:06:53;3.23;;;2.73;;
15645;SDS011;7922;43.622;1.476;2023-09-12T00:09:18;3.57;;;2.80;;
15645;SDS011;7922;43.622;1.476;2023-09-12T00:11:43;4.10;;;3.07;;
15645;SDS011;7922;43.622;1.476;2023-09-12T00:14:09;4.23;;;3.20;;
15645;SDS011;7922;43.622;1.476;2023-09-12T00:16:34;3.40;;;2.70;;
15645;SDS011;7922;43.622;1.476;2023-09-12T00:19:00;3.40;;;2.70;;
15645;SDS011;7922;43.622;1.476;2023-09-12T00:21:25;3.37;;;2.73;;
15645;SDS011;7922;43.622;1.476;2023-09-12T00:23:50;3.37;;;2.57;;
15645;SDS011;7922;43.622;1.476;2023-09-12T00:26:16;4.13;;;2.83;;
15645;SDS011;7922;43.622;1.476;2023-09-12T00:28:41;6.17;;;3.07;;
15645;SDS011;7922;43.622;1.476;2023-09-12T00:31:06;3.87;;;3.03;;
15645;SDS011;7922;43.622;1.476;2023-09-12T00:33:31;3.33;;;2.90;;
15645;SDS011;7922;43.622;1.476;2023-09-12T00:35:57;2.97;;;2.70;;
15645;SDS011;7922;43.622;1.476;2023-09-12T00:38:23;3.30;;;2.97;;
15645;SDS011;7922;43.622;1.476;2023-09-12T00:40:48;3.20;;;2.90;;
15645;SDS011;7922;43.622;1.476;2023-09-12T00:43:13;3.10;;;2.90;;
15645;SDS011;7922;43.622;1.476;2023-09-12T00:45:39;3.50;;;2.93;;
15645;SDS011;7922;43.622;1.476;2023-09-12T00:48:05;4.00;;;3.07;;
15645;SDS011;7922;43.622;1.476;2023-09-12T00:50:32;5.10;;;3.40;;
15645;SDS011;7922;43.622;1.476;2023-09-12T00:52:59;3.97;;;3.00;;
15645;SDS011;7922;43.622;1.476;2023-09-12T00:55:25;3.00;;;2.70;;
15645;SDS011;7922;43.622;1.476;2023-09-12T00:57:54;3.40;;;2.87;;
15645;SDS011;7922;43.622;1.476;2023-09-12T01:00:19;4.83;;;3.07;;
15645;SDS011;7922;43.622;1.476;2023-09-12T01:02:45;4.40;;;3.30;;
15645;SDS011;7922;43.622;1.476;2023-09-12T01:05:12;3.23;;;2.93;;
15645;SDS011;7922;43.622;1.476;2023-09-12T01:07:38;6.20;;;2.93;;
15645;SDS011;7922;43.622;1.476;2023-09-12T01:10:04;4.53;;;2.93;;
15645;SDS011;7922;43.622;1.476;2023-09-12T01:12:31;2.83;;;2.60;;
15645;SDS011;7922;43.622;1.476;2023-09-12T01:14:56;4.60;;;3.40;;
15645;SDS011;7922;43.622;1.476;2023-09-12T01:17:22;3.57;;;2.73;;
15645;SDS011;7922;43.622;1.476;2023-09-12T01:19:48;3.23;;;2.93;;
15645;SDS011;7922;43.622;1.476;2023-09-12T01:22:29;3.90;;;3.10;;
15645;SDS011;7922;43.622;1.476;2023-09-12T01:27:50;5.27;;;3.00;;
15645;SDS011;7922;43.622;1.476;2023-09-12T01:30:17;3.83;;;2.97;;
15645;SDS011;7922;43.622;1.476;2023-09-12T01:32:45;3.30;;;3.00;;
15645;SDS011;7922;43.622;1.476;2023-09-12T01:35:10;6.53;;;3.03;;
15645;SDS011;7922;43.622;1.476;2023-09-12T01:37:36;3.30;;;3.00;;
15645;SDS011;7922;43.622;1.476;2023-09-12T01:40:01;3.93;;;3.30;;
15645;SDS011;7922;43.622;1.476;2023-09-12T01:42:30;2.97;;;2.53;;
15645;SDS011;7922;43.622;1.476;2023-09-12T01:45:00;3.93;;;2.87;;
15645;SDS011;7922;43.622;1.476;2023-09-12T01:47:26;3.50;;;3.20;;
15645;SDS011;7922;43.622;1.476;2023-09-12T01:49:54;4.43;;;3.23;;
15645;SDS011;7922;43.622;1.476;2023-09-12T01:52:21;3.67;;;2.77;;
15645;SDS011;7922;43.622;1.476;2023-09-12T01:54:48;5.97;;;3.00;;
15645;SDS011;7922;43.622;1.476;2023-09-12T01:57:15;3.67;;;2.93;;
15645;SDS011;7922;43.622;1.476;2023-09-12T01:59:42;4.17;;;3.00;;
15645;SDS011;7922;43.622;1.476;2023-09-12T02:02:07;4.30;;;3.00;;
15645;SDS011;7922;43.622;1.476;2023-09-12T02:04:33;4.20;;;3.67;;
15645;SDS011;7922;43.622;1.476;2023-09-12T02:06:58;4.27;;;3.57;;
15645;SDS011;7922;43.622;1.476;2023-09-12T02:09:23;4.00;;;3.60;;
15645;SDS011;7922;43.622;1.476;2023-09-12T02:11:50;4.20;;;3.80;;
15645;SDS011;7922;43.622;1.476;2023-09-12T02:14:16;6.83;;;3.53;;
15645;SDS011;7922;43.622;1.476;2023-09-12T02:16:41;4.27;;;3.80;;
15645;SDS011;7922;43.622;1.476;2023-09-12T02:19:06;5.87;;;4.00;;
15645;SDS011;7922;43.622;1.476;2023-09-12T02:21:31;5.70;;;4.50;;
15645;SDS011;7922;43.622;1.476;2023-09-12T02:23:57;6.30;;;4.30;;
15645;SDS011;7922;43.622;1.476;2023-09-12T02:26:22;4.63;;;4.10;;
15645;SDS011;7922;43.622;1.476;2023-09-12T02:28:47;4.60;;;4.17;;
15645;SDS011;7922;43.622;1.476;2023-09-12T02:31:13;7.23;;;3.97;;
15645;SDS011;7922;43.622;1.476;2023-09-12T02:33:38;6.27;;;4.70;;
15645;SDS011;7922;43.622;1.476;2023-09-12T02:36:04;6.70;;;4.70;;
15645;SDS011;7922;43.622;1.476;2023-09-12T02:38:30;6.80;;;4.80;;
15645;SDS011;7922;43.622;1.476;2023-09-12T02:40:55;6.93;;;4.50;;
15645;SDS011;7922;43.622;1.476;2023-09-12T02:43:21;6.13;;;5.27;;
15645;SDS011;7922;43.622;1.476;2023-09-12T02:45:46;6.90;;;5.23;;
15645;SDS011;7922;43.622;1.476;2023-09-12T02:48:11;6.07;;;5.23;;
15645;SDS011;7922;43.622;1.476;2023-09-12T02:50:37;6.20;;;4.77;;
15645;SDS011;7922;43.622;1.476;2023-09-12T02:53:02;4.77;;;4.33;;
15645;SDS011;7922;43.622;1.476;2023-09-12T02:55:27;6.00;;;4.93;;
15645;SDS011;7922;43.622;1.476;2023-09-12T02:57:53;9.17;;;5.03;;
15645;SDS011;7922;43.622;1.476;2023-09-12T03:00:19;6.43;;;4.90;;
15645;SDS011;7922;43.622;1.476;2023-09-12T03:02:44;5.57;;;4.90;;
15645;SDS011;7922;43.622;1.476;2023-09-12T03:05:09;4.37;;;3.93;;
15645;SDS011;7922;43.622;1.476;2023-09-12T03:07:35;5.50;;;4.63;;
15645;SDS011;7922;43.622;1.476;2023-09-12T03:10:00;5.87;;;5.23;;
15645;SDS011;7922;43.622;1.476;2023-09-12T03:12:25;5.70;;;4.60;;
15645;SDS011;7922;43.622;1.476;2023-09-12T03:14:50;6.10;;;5.27;;
15645;SDS011;7922;43.622;1.476;2023-09-12T03:17:16;7.43;;;5.00;;
15645;SDS011;7922;43.622;1.476;2023-09-12T03:19:41;5.30;;;4.67;;
15645;SDS011;7922;43.622;1.476;2023-09-12T03:22:06;6.27;;;4.53;;
15645;SDS011;7922;43.622;1.476;2023-09-12T03:24:31;7.07;;;5.20;;
15645;SDS011;7922;43.622;1.476;2023-09-12T03:26:57;5.23;;;4.73;;
15645;SDS011;7922;43.622;1.476;2023-09-12T03:29:22;5.77;;;4.73;;
15645;SDS011;7922;43.622;1.476;2023-09-12T03:31:47;6.83;;;5.27;;
15645;SDS011;7922;43.622;1.476;2023-09-12T03:34:13;6.00;;;4.97;;
15645;SDS011;7922;43.622;1.476;2023-09-12T03:36:38;5.20;;;4.80;;
15645;SDS011;7922;43.622;1.476;2023-09-12T03:39:03;5.53;;;4.97;;
15645;SDS011;7922;43.622;1.476;2023-09-12T03:41:29;5.43;;;4.93;;
15645;SDS011;7922;43.622;1.476;2023-09-12T03:43:54;5.60;;;4.77;;
15645;SDS011;7922;43.622;1.476;2023-09-12T03:46:20;5.60;;;5.00;;
15645;SDS011;7922;43.622;1.476;2023-09-12T03:48:45;6.37;;;4.73;;
15645;SDS011;7922;43.622;1.476;2023-09-12T03:51:10;5.53;;;5.03;;
15645;SDS011;7922;43.622;1.476;2023-09-12T03:53:35;5.23;;;4.73;;
15645;SDS011;7922;43.622;1.476;2023-09-12T03:56:01;5.87;;;5.27;;
15645;SDS011;7922;43.622;1.476;2023-09-12T03:58:26;5.83;;;5.13;;
15645;SDS011;7922;43.622;1.476;2023-09-12T04:00:51;6.03;;;5.20;;
15645;SDS011;7922;43.622;1.476;2023-09-12T04:03:16;5.53;;;5.03;;
15645;SDS011;7922;43.622;1.476;2023-09-12T04:05:42;4.83;;;4.43;;
15645;SDS011;7922;43.622;1.476;2023-09-12T04:08:07;5.57;;;5.03;;
15645;SDS011;7922;43.622;1.476;2023-09-12T04:10:32;5.37;;;4.87;;
15645;SDS011;7922;43.622;1.476;2023-09-12T04:12:57;5.60;;;4.90;;
15645;SDS011;7922;43.622;1.476;2023-09-12T04:15:23;6.00;;;5.50;;
15645;SDS011;7922;43.622;1.476;2023-09-12T04:17:48;6.00;;;5.40;;
15645;SDS011;7922;43.622;1.476;2023-09-12T04:20:13;5.77;;;5.27;;
15645;SDS011;7922;43.622;1.476;2023-09-12T04:22:39;6.33;;;5.40;;
15645;SDS011;7922;43.622;1.476;2023-09-12T04:25:06;7.07;;;5.23;;
15645;SDS011;7922;43.622;1.476;2023-09-12T04:27:31;5.57;;;5.00;;
15645;SDS011;7922;43.622;1.476;2023-09-12T04:29:57;5.83;;;5.30;;
15645;SDS011;7922;43.622;1.476;2023-09-12T04:32:22;5.87;;;5.27;;
15645;SDS011;7922;43.622;1.476;2023-09-12T04:34:47;5.67;;;5.17;;
15645;SDS011;7922;43.622;1.476;2023-09-12T04:37:12;5.57;;;5.07;;
15645;SDS011;7922;43.622;1.476;2023-09-12T04:39:38;7.10;;;5.73;;
15645;SDS011;7922;43.622;1.476;2023-09-12T04:42:03;5.80;;;5.20;;
15645;SDS011;7922;43.622;1.476;2023-09-12T04:44:28;5.70;;;5.20;;
15645;SDS011;7922;43.622;1.476;2023-09-12T04:46:54;5.57;;;5.07;;
15645;SDS011;7922;43.622;1.476;2023-09-12T04:49:19;5.40;;;5.00;;
15645;SDS011;7922;43.622;1.476;2023-09-12T04:51:44;5.80;;;4.90;;
15645;SDS011;7922;43.622;1.476;2023-09-12T04:54:10;5.53;;;5.03;;
15645;SDS011;7922;43.622;1.476;2023-09-12T04:56:35;6.70;;;5.20;;
15645;SDS011;7922;43.622;1.476;2023-09-12T04:59:00;6.00;;;5.50;;
15645;SDS011;7922;43.622;1.476;2023-09-12T05:01:25;6.07;;;5.30;;
15645;SDS011;7922;43.622;1.476;2023-09-12T05:03:51;6.00;;;5.13;;
15645;SDS011;7922;43.622;1.476;2023-09-12T05:06:16;6.40;;;5.43;;
15645;SDS011;7922;43.622;1.476;2023-09-12T05:08:41;5.83;;;5.33;;
15645;SDS011;7922;43.622;1.476;2023-09-12T05:11:07;6.10;;;5.50;;
15645;SDS011;7922;43.622;1.476;2023-09-12T05:13:32;5.87;;;5.40;;
15645;SDS011;7922;43.622;1.476;2023-09-12T05:15:57;6.57;;;5.70;;
15645;SDS011;7922;43.622;1.476;2023-09-12T05:18:23;6.07;;;5.50;;
15645;SDS011;7922;43.622;1.476;2023-09-12T05:20:48;6.13;;;5.53;;
15645;SDS011;7922;43.622;1.476;2023-09-12T05:23:14;6.20;;;5.13;;
15645;SDS011;7922;43.622;1.476;2023-09-12T05:25:39;7.23;;;5.43;;
15645;SDS011;7922;43.622;1.476;2023-09-12T05:28:05;6.13;;;5.40;;
15645;SDS011;7922;43.622;1.476;2023-09-12T05:30:30;6.70;;;6.10;;
15645;SDS011;7922;43.622;1.476;2023-09-12T05:32:56;6.40;;;5.67;;
15645;SDS011;7922;43.622;1.476;2023-09-12T05:35:21;6.53;;;5.77;;
15645;SDS011;7922;43.622;1.476;2023-09-12T05:37:46;9.10;;;6.40;;
15645;SDS011;7922;43.622;1.476;2023-09-12T05:40:11;6.07;;;5.57;;
15645;SDS011;7922;43.622;1.476;2023-09-12T05:42:37;8.37;;;5.57;;
15645;SDS011;7922;43.622;1.476;2023-09-12T05:45:04;6.77;;;5.57;;
15645;SDS011;7922;43.622;1.476;2023-09-12T05:47:31;6.83;;;5.57;;
15645;SDS011;7922;43.622;1.476;2023-09-12T05:49:56;6.60;;;6.00;;
15645;SDS011;7922;43.622;1.476;2023-09-12T05:52:21;6.13;;;5.60;;
15645;SDS011;7922;43.622;1.476;2023-09-12T05:54:46;6.27;;;5.67;;
15645;SDS011;7922;43.622;1.476;2023-09-12T05:57:12;6.77;;;6.17;;
15645;SDS011;7922;43.622;1.476;2023-09-12T05:59:37;8.07;;;6.37;;
15645;SDS011;7922;43.622;1.476;2023-09-12T06:02:04;7.37;;;5.77;;
15645;SDS011;7922;43.622;1.476;2023-09-12T06:04:29;7.63;;;6.00;;
15645;SDS011;7922;43.622;1.476;2023-09-12T06:06:55;6.93;;;6.23;;
15645;SDS011;7922;43.622;1.476;2023-09-12T06:09:20;6.23;;;5.63;;
15645;SDS011;7922;43.622;1.476;2023-09-12T06:11:45;6.90;;;6.20;;
15645;SDS011;7922;43.622;1.476;2023-09-12T06:14:11;9.70;;;6.53;;
15645;SDS011;7922;43.622;1.476;2023-09-12T06:16:36;8.67;;;6.47;;
15645;SDS011;7922;43.622;1.476;2023-09-12T06:19:01;7.63;;;6.40;;
15645;SDS011;7922;43.622;1.476;2023-09-12T06:21:27;6.57;;;5.97;;
15645;SDS011;7922;43.622;1.476;2023-09-12T06:24:07;6.50;;;5.83;;
15645;SDS011;7922;43.622;1.476;2023-09-12T06:26:43;6.47;;;5.93;;
15645;SDS011;7922;43.622;1.476;2023-09-12T06:29:09;5.87;;;5.37;;
15645;SDS011;7922;43.622;1.476;2023-09-12T06:31:34;6.27;;;5.27;;
15645;SDS011;7922;43.622;1.476;2023-09-12T06:33:59;6.77;;;5.70;;
15645;SDS011;7922;43.622;1.476;2023-09-12T06:36:25;5.43;;;4.93;;
15645;SDS011;7922;43.622;1.476;2023-09-12T06:38:53;6.37;;;5.17;;
15645;SDS011;7922;43.622;1.476;2023-09-12T06:41:21;6.53;;;5.20;;
15645;SDS011;7922;43.622;1.476;2023-09-12T06:43:46;5.23;;;4.83;;
15645;SDS011;7922;43.622;1.476;2023-09-12T06:46:12;6.20;;;5.13;;
15645;SDS011;7922;43.622;1.476;2023-09-12T06:48:38;6.40;;;5.73;;
15645;SDS011;7922;43.622;1.476;2023-09-12T06:51:08;7.27;;;6.57;;
15645;SDS011;7922;43.622;1.476;2023-09-12T06:53:34;6.63;;;5.97;;
15645;SDS011;7922;43.622;1.476;2023-09-12T06:55:59;7.37;;;6.40;;
15645;SDS011;7922;43.622;1.476;2023-09-12T06:58:25;6.73;;;6.00;;
15645;SDS011;7922;43.622;1.476;2023-09-12T07:00:50;6.63;;;5.63;;
15645;SDS011;7922;43.622;1.476;2023-09-12T07:03:16;6.23;;;5.63;;
15645;SDS011;7922;43.622;1.476;2023-09-12T07:05:41;6.63;;;5.97;;
15645;SDS011;7922;43.622;1.476;2023-09-12T07:08:07;7.73;;;5.97;;
15645;SDS011;7922;43.622;1.476;2023-09-12T07:10:32;6.57;;;5.97;;
15645;SDS011;7922;43.622;1.476;2023-09-12T07:12:57;6.80;;;6.20;;
15645;SDS011;7922;43.622;1.476;2023-09-12T07:15:23;6.53;;;5.93;;
15645;SDS011;7922;43.622;1.476;2023-09-12T07:17:48;6.57;;;5.97;;
15645;SDS011;7922;43.622;1.476;2023-09-12T07:20:13;7.77;;;6.03;;
15645;SDS011;7922;43.622;1.476;2023-09-12T07:22:39;7.60;;;5.90;;
15645;SDS011;7922;43.622;1.476;2023-09-12T07:25:04;7.07;;;5.63;;
15645;SDS011;7922;43.622;1.476;2023-09-12T07:27:30;6.60;;;5.60;;
15645;SDS011;7922;43.622;1.476;2023-09-12T07:29:56;9.20;;;7.60;;
15645;SDS011;7922;43.622;1.476;2023-09-12T07:32:21;8.60;;;7.73;;
15645;SDS011;7922;43.622;1.476;2023-09-12T07:34:46;8.73;;;7.93;;
15645;SDS011;7922;43.622;1.476;2023-09-12T07:37:11;9.40;;;7.80;;
15645;SDS011;7922;43.622;1.476;2023-09-12T07:39:37;10.03;;;8.20;;
15645;SDS011;7922;43.622;1.476;2023-09-12T07:42:02;10.60;;;8.53;;
15645;SDS011;7922;43.622;1.476;2023-09-12T07:44:28;10.57;;;8.60;;
15645;SDS011;7922;43.622;1.476;2023-09-12T07:46:53;9.20;;;8.30;;
15645;SDS011;7922;43.622;1.476;2023-09-12T07:49:18;12.27;;;8.80;;
15645;SDS011;7922;43.622;1.476;2023-09-12T07:51:44;9.63;;;8.67;;
15645;SDS011;7922;43.622;1.476;2023-09-12T07:54:09;8.97;;;8.17;;
15645;SDS011;7922;43.622;1.476;2023-09-12T07:56:34;12.57;;;9.10;;
15645;SDS011;7922;43.622;1.476;2023-09-12T07:58:59;9.17;;;8.37;;
15645;SDS011;7922;43.622;1.476;2023-09-12T08:01:25;11.70;;;8.70;;
15645;SDS011;7922;43.622;1.476;2023-09-12T08:03:50;10.27;;;7.97;;
15645;SDS011;7922;43.622;1.476;2023-09-12T08:06:15;11.60;;;9.20;;
15645;SDS011;7922;43.622;1.476;2023-09-12T08:08:41;9.40;;;8.40;;
15645;SDS011;7922;43.622;1.476;2023-09-12T08:11:06;8.63;;;7.73;;
15645;SDS011;7922;43.622;1.476;2023-09-12T08:13:31;9.10;;;8.27;;
15645;SDS011;7922;43.622;1.476;2023-09-12T08:15:59;10.07;;;8.50;;
15645;SDS011;7922;43.622;1.476;2023-09-12T08:18:26;10.73;;;8.97;;
15645;SDS011;7922;43.622;1.476;2023-09-12T08:20:53;8.77;;;7.87;;
15645;SDS011;7922;43.622;1.476;2023-09-12T08:23:19;11.77;;;8.23;;
15645;SDS011;7922;43.622;1.476;2023-09-12T08:25:44;8.97;;;8.07;;
15645;SDS011;7922;43.622;1.476;2023-09-12T08:28:09;9.60;;;8.37;;
15645;SDS011;7922;43.622;1.476;2023-09-12T08:30:34;8.67;;;7.73;;
15645;SDS011;7922;43.622;1.476;2023-09-12T08:33:00;11.57;;;7.73;;
15645;SDS011;7922;43.622;1.476;2023-09-12T08:35:25;10.67;;;8.47;;
15645;SDS011;7922;43.622;1.476;2023-09-12T08:37:50;9.03;;;8.17;;
15645;SDS011;7922;43.622;1.476;2023-09-12T08:40:15;9.40;;;7.43;;
15645;SDS011;7922;43.622;1.476;2023-09-12T08:42:42;9.97;;;8.37;;
15645;SDS011;7922;43.622;1.476;2023-09-12T08:45:12;9.90;;;7.57;;
15645;SDS011;7922;43.622;1.476;2023-09-12T08:47:45;8.80;;;7.50;;
15645;SDS011;7922;43.622;1.476;2023-09-12T08:50:21;8.70;;;7.33;;
15645;SDS011;7922;43.622;1.476;2023-09-12T08:52:47;8.93;;;6.70;;
15645;SDS011;7922;43.622;1.476;2023-09-12T08:55:12;8.33;;;7.53;;
15645;SDS011;7922;43.622;1.476;2023-09-12T08:57:39;8.43;;;7.30;;
15645;SDS011;7922;43.622;1.476;2023-09-12T09:00:06;7.80;;;7.00;;
15645;SDS011;7922;43.622;1.476;2023-09-12T09:02:33;8.37;;;7.57;;
15645;SDS011;7922;43.622;1.476;2023-09-12T09:05:00;8.73;;;7.27;;
15645;SDS011;7922;43.622;1.476;2023-09-12T09:07:27;8.00;;;6.67;;
15645;SDS011;7922;43.622;1.476;2023-09-12T09:09:54;6.87;;;6.27;;
15645;SDS011;7922;43.622;1.476;2023-09-12T09:12:20;8.63;;;6.80;;
15645;SDS011;7922;43.622;1.476;2023-09-12T09:14:45;7.47;;;6.70;;
15645;SDS011;7922;43.622;1.476;2023-09-12T09:17:11;6.80;;;6.20;;
15645;SDS011;7922;43.622;1.476;2023-09-12T09:19:43;7.53;;;5.83;;
15645;SDS011;7922;43.622;1.476;2023-09-12T09:22:09;7.30;;;6.57;;
15645;SDS011;7922;43.622;1.476;2023-09-12T09:24:34;6.80;;;6.17;;
15645;SDS011;7922;43.622;1.476;2023-09-12T09:27:02;6.70;;;6.00;;
15645;SDS011;7922;43.622;1.476;2023-09-12T09:29:28;7.53;;;6.70;;
15645;SDS011;7922;43.622;1.476;2023-09-12T09:31:53;7.33;;;6.10;;
15645;SDS011;7922;43.622;1.476;2023-09-12T09:34:19;8.63;;;5.83;;
15645;SDS011;7922;43.622;1.476;2023-09-12T09:36:49;8.07;;;6.30;;
15645;SDS011;7922;43.622;1.476;2023-09-12T09:39:16;6.63;;;5.60;;
15645;SDS011;7922;43.622;1.476;2023-09-12T09:41:42;6.77;;;5.30;;
15645;SDS011;7922;43.622;1.476;2023-09-12T09:44:12;6.43;;;4.87;;
15645;SDS011;7922;43.622;1.476;2023-09-12T09:46:38;5.57;;;4.70;;
15645;SDS011;7922;43.622;1.476;2023-09-12T09:49:03;5.90;;;4.37;;
15645;SDS011;7922;43.622;1.476;2023-09-12T09:51:31;4.67;;;4.27;;
15645;SDS011;7922;43.622;1.476;2023-09-12T09:53:57;5.80;;;4.30;;
15645;SDS011;7922;43.622;1.476;2023-09-12T09:56:22;4.77;;;4.30;;
15645;SDS011;7922;43.622;1.476;2023-09-12T09:58:48;6.27;;;4.67;;
15645;SDS011;7922;43.622;1.476;2023-09-12T10:01:18;4.33;;;3.83;;
15645;SDS011;7922;43.622;1.476;2023-09-12T10:03:48;6.53;;;4.80;;
15645;SDS011;7922;43.622;1.476;2023-09-12T10:06:18;5.83;;;4.27;;
15645;SDS011;7922;43.622;1.476;2023-09-12T10:08:45;4.70;;;3.93;;
15645;SDS011;7922;43.622;1.476;2023-09-12T10:11:14;6.07;;;4.00;;
15645;SDS011;7922;43.622;1.476;2023-09-12T10:13:40;4.40;;;4.00;;
15645;SDS011;7922;43.622;1.476;2023-09-12T10:16:11;5.20;;;4.03;;
15645;SDS011;7922;43.622;1.476;2023-09-12T10:18:39;4.63;;;4.23;;
15645;SDS011;7922;43.622;1.476;2023-09-12T10:21:15;4.23;;;3.90;;
15645;SDS011;7922;43.622;1.476;2023-09-12T10:23:49;6.33;;;4.20;;
15645;SDS011;7922;43.622;1.476;2023-09-12T10:26:14;5.80;;;4.33;;
15645;SDS011;7922;43.622;1.476;2023-09-12T10:28:40;5.20;;;4.10;;
15645;SDS011;7922;43.622;1.476;2023-09-12T10:31:06;5.60;;;4.47;;
15645;SDS011;7922;43.622;1.476;2023-09-12T10:33:33;4.37;;;3.97;;
15645;SDS011;7922;43.622;1.476;2023-09-12T10:35:59;4.73;;;4.23;;
15645;SDS011;7922;43.622;1.476;2023-09-12T10:38:26;4.83;;;4.00;;
15645;SDS011;7922;43.622;1.476;2023-09-12T10:40:53;5.13;;;4.67;;
15645;SDS011;7922;43.622;1.476;2023-09-12T10:43:20;4.83;;;4.43;;
15645;SDS011;7922;43.622;1.476;2023-09-12T10:45:46;5.97;;;5.27;;
15645;SDS011;7922;43.622;1.476;2023-09-12T10:48:14;6.33;;;5.23;;
15645;SDS011;7922;43.622;1.476;2023-09-12T10:50:40;12.13;;;8.03;;
15645;SDS011;7922;43.622;1.476;2023-09-12T10:53:10;9.43;;;6.67;;
15645;SDS011;7922;43.622;1.476;2023-09-12T10:55:37;6.20;;;5.60;;
15645;SDS011;7922;43.622;1.476;2023-09-12T11:00:28;5.47;;;4.57;;
15645;SDS011;7922;43.622;1.476;2023-09-12T11:02:54;6.07;;;4.60;;
15645;SDS011;7922;43.622;1.476;2023-09-12T11:07:56;5.43;;;5.00;;
15645;SDS011;7922;43.622;1.476;2023-09-12T11:10:23;5.50;;;4.90;;
15645;SDS011;7922;43.622;1.476;2023-09-12T11:12:52;5.00;;;4.50;;
15645;SDS011;7922;43.622;1.476;2023-09-12T11:15:19;5.43;;;4.90;;
15645;SDS011;7922;43.622;1.476;2023-09-12T11:17:47;5.03;;;4.60;;
15645;SDS011;7922;43.622;1.476;2023-09-12T11:20:14;6.60;;;4.63;;
15645;SDS011;7922;43.622;1.476;2023-09-12T11:22:44;8.43;;;5.20;;
15645;SDS011;7922;43.622;1.476;2023-09-12T11:27:46;4.93;;;4.53;;
15645;SDS011;7922;43.622;1.476;2023-09-12T11:30:27;6.93;;;5.40;;
15645;SDS011;7922;43.622;1.476;2023-09-12T11:32:53;6.97;;;5.17;;
15645;SDS011;7922;43.622;1.476;2023-09-12T11:35:23;5.33;;;4.83;;
15645;SDS011;7922;43.622;1.476;2023-09-12T11:37:50;5.37;;;4.87;;
15645;SDS011;7922;43.622;1.476;2023-09-12T11:40:17;6.17;;;4.77;;
15645;SDS011;7922;43.622;1.476;2023-09-12T11:42:47;6.57;;;5.03;;
15645;SDS011;7922;43.622;1.476;2023-09-12T11:45:13;5.47;;;4.83;;
15645;SDS011;7922;43.622;1.476;2023-09-12T11:47:42;8.17;;;5.37;;
15645;SDS011;7922;43.622;1.476;2023-09-12T11:50:09;5.40;;;4.90;;
15645;SDS011;7922;43.622;1.476;2023-09-12T11:53:00;5.77;;;5.20;;
15645;SDS011;7922;43.622;1.476;2023-09-12T11:55:28;7.73;;;5.27;;
15645;SDS011;7922;43.622;1.476;2023-09-12T11:57:56;6.63;;;5.00;;
15645;SDS011;7922;43.622;1.476;2023-09-12T12:00:22;5.43;;;4.97;;
15645;SDS011;7922;43.622;1.476;2023-09-12T12:02:47;5.37;;;4.87;;
15645;SDS011;7922;43.622;1.476;2023-09-12T12:05:12;8.20;;;5.17;;
15645;SDS011;7922;43.622;1.476;2023-09-12T12:07:38;5.93;;;4.90;;
15645;SDS011;7922;43.622;1.476;2023-09-12T12:10:04;6.03;;;5.43;;
15645;SDS011;7922;43.622;1.476;2023-09-12T12:12:30;7.23;;;5.30;;
15645;SDS011;7922;43.622;1.476;2023-09-12T12:14:55;5.40;;;4.90;;
15645;SDS011;7922;43.622;1.476;2023-09-12T12:17:20;6.80;;;5.50;;
15645;SDS011;7922;43.622;1.476;2023-09-12T12:19:46;5.93;;;5.33;;
15645;SDS011;7922;43.622;1.476;2023-09-12T12:22:11;5.97;;;5.20;;
15645;SDS011;7922;43.622;1.476;2023-09-12T12:24:41;6.17;;;4.70;;
15645;SDS011;7922;43.622;1.476;2023-09-12T12:27:07;7.33;;;5.27;;
15645;SDS011;7922;43.622;1.476;2023-09-12T12:29:33;6.70;;;4.90;;
15645;SDS011;7922;43.622;1.476;2023-09-12T12:31:59;5.50;;;5.10;;
15645;SDS011;7922;43.622;1.476;2023-09-12T12:34:25;6.37;;;4.60;;
15645;SDS011;7922;43.622;1.476;2023-09-12T12:36:51;6.30;;;5.33;;
15645;SDS011;7922;43.622;1.476;2023-09-12T12:39:16;6.40;;;5.73;;
15645;SDS011;7922;43.622;1.476;2023-09-12T12:41:42;6.33;;;5.77;;
15645;SDS011;7922;43.622;1.476;2023-09-12T12:44:07;5.63;;;5.13;;
15645;SDS011;7922;43.622;1.476;2023-09-12T12:46:32;5.33;;;4.90;;
15645;SDS011;7922;43.622;1.476;2023-09-12T12:48:58;6.33;;;5.67;;
15645;SDS011;7922;43.622;1.476;2023-09-12T12:51:23;6.43;;;5.83;;
15645;SDS011;7922;43.622;1.476;2023-09-12T12:56:28;6.53;;;5.93;;
15645;SDS011;7922;43.622;1.476;2023-09-12T12:58:55;6.10;;;5.53;;
15645;SDS011;7922;43.622;1.476;2023-09-12T13:01:21;6.07;;;5.57;;
15645;SDS011;7922;43.622;1.476;2023-09-12T13:03:47;6.37;;;5.77;;
15645;SDS011;7922;43.622;1.476;2023-09-12T13:06:12;6.00;;;5.47;;
15645;SDS011;7922;43.622;1.476;2023-09-12T13:08:37;6.63;;;5.70;;
15645;SDS011;7922;43.622;1.476;2023-09-12T13:11:03;5.50;;;5.00;;
15645;SDS011;7922;43.622;1.476;2023-09-12T13:13:28;6.20;;;5.70;;
15645;SDS011;7922;43.622;1.476;2023-09-12T13:15:53;6.50;;;5.90;;
15645;SDS011;7922;43.622;1.476;2023-09-12T13:18:19;6.53;;;5.93;;
15645;SDS011;7922;43.622;1.476;2023-09-12T13:20:44;6.97;;;6.30;;
15645;SDS011;7922;43.622;1.476;2023-09-12T13:23:09;7.87;;;6.47;;
15645;SDS011;7922;43.622;1.476;2023-09-12T13:25:35;7.37;;;6.50;;
15645;SDS011;7922;43.622;1.476;2023-09-12T13:28:00;12.53;;;6.43;;
15645;SDS011;7922;43.622;1.476;2023-09-12T13:30:26;7.00;;;6.30;;
15645;SDS011;7922;43.622;1.476;2023-09-12T13:32:51;7.80;;;6.63;;
15645;SDS011;7922;43.622;1.476;2023-09-12T13:35:16;7.10;;;6.40;;
15645;SDS011;7922;43.622;1.476;2023-09-12T13:37:41;6.73;;;6.07;;
15645;SDS011;7922;43.622;1.476;2023-09-12T13:40:07;6.97;;;6.27;;
15645;SDS011;7922;43.622;1.476;2023-09-12T13:42:32;7.40;;;6.70;;
15645;SDS011;7922;43.622;1.476;2023-09-12T13:44:58;7.03;;;6.33;;
15645;SDS011;7922;43.622;1.476;2023-09-12T13:47:26;8.97;;;7.07;;
15645;SDS011;7922;43.622;1.476;2023-09-12T13:49:51;8.17;;;6.80;;
15645;SDS011;7922;43.622;1.476;2023-09-12T13:52:17;9.07;;;6.83;;
15645;SDS011;7922;43.622;1.476;2023-09-12T13:54:42;7.20;;;6.57;;
15645;SDS011;7922;43.622;1.476;2023-09-12T13:57:07;7.63;;;6.73;;
15645;SDS011;7922;43.622;1.476;2023-09-12T13:59:32;8.63;;;6.90;;
15645;SDS011;7922;43.622;1.476;2023-09-12T14:01:58;7.57;;;6.87;;
15645;SDS011;7922;43.622;1.476;2023-09-12T14:04:23;7.37;;;6.33;;
15645;SDS011;7922;43.622;1.476;2023-09-12T14:06:48;9.17;;;6.80;;
15645;SDS011;7922;43.622;1.476;2023-09-12T14:09:14;7.00;;;6.50;;
15645;SDS011;7922;43.622;1.476;2023-09-12T14:11:39;8.80;;;7.10;;
15645;SDS011;7922;43.622;1.476;2023-09-12T14:14:04;8.13;;;6.90;;
15645;SDS011;7922;43.622;1.476;2023-09-12T14:16:29;9.43;;;8.53;;
15645;SDS011;7922;43.622;1.476;2023-09-12T14:18:55;9.53;;;7.13;;
15645;SDS011;7922;43.622;1.476;2023-09-12T14:21:20;8.23;;;7.53;;
15645;SDS011;7922;43.622;1.476;2023-09-12T14:23:45;7.03;;;6.33;;
15645;SDS011;7922;43.622;1.476;2023-09-12T14:26:11;8.37;;;6.17;;
15645;SDS011;7922;43.622;1.476;2023-09-12T14:28:36;8.33;;;6.60;;
15645;SDS011;7922;43.622;1.476;2023-09-12T14:31:01;6.87;;;5.63;;
15645;SDS011;7922;43.622;1.476;2023-09-12T14:33:26;5.33;;;4.83;;
15645;SDS011;7922;43.622;1.476;2023-09-12T14:35:52;6.50;;;5.90;;
15645;SDS011;7922;43.622;1.476;2023-09-12T14:38:17;6.30;;;5.70;;
15645;SDS011;7922;43.622;1.476;2023-09-12T14:40:42;7.03;;;5.93;;
15645;SDS011;7922;43.622;1.476;2023-09-12T14:43:07;6.17;;;5.60;;
15645;SDS011;7922;43.622;1.476;2023-09-12T14:45:33;7.73;;;5.67;;
15645;SDS011;7922;43.622;1.476;2023-09-12T14:47:58;6.90;;;6.20;;
15645;SDS011;7922;43.622;1.476;2023-09-12T14:50:23;6.43;;;5.80;;
15645;SDS011;7922;43.622;1.476;2023-09-12T14:52:49;8.30;;;5.47;;
15645;SDS011;7922;43.622;1.476;2023-09-12T14:55:15;6.47;;;5.50;;
15645;SDS011;7922;43.622;1.476;2023-09-12T14:57:41;6.27;;;5.67;;
15645;SDS011;7922;43.622;1.476;2023-09-12T15:00:06;6.00;;;4.57;;
15645;SDS011;7922;43.622;1.476;2023-09-12T15:02:32;5.33;;;4.93;;
15645;SDS011;7922;43.622;1.476;2023-09-12T15:05:01;6.07;;;5.00;;
15645;SDS011;7922;43.622;1.476;2023-09-12T15:07:27;5.60;;;4.97;;